sensor_id;sensor_type;location;lat;lon;timestamp;P1;durP1;ratioP1;P2;durP2;ratioP2
21587;SDS011;10956;48.878;13.316;2022-07-03T00:01:36;2.30;;;2.10;;
21587;SDS011;10956;48.878;13.316;2022-07-03T00:04:02;2.40;;;2.20;;
21587;SDS011;10956;48.878;13.316;2022-07-03T00:06:27;2.47;;;2.27;;
21587;SDS011;10956;48.878;13.316;2022-07-03T00:08:56;2.60;;;2.40;;
21587;SDS011;10956;48.878;13.316;2022-07-03T00:11:22;2.43;;;2.23;;
21587;SDS011;10956;48.878;13.316;2022-07-03T00:13:48;2.40;;;2.20;;
21587;SDS011;10956;48.878;13.316;2022-07-03T00:16:14;2.60;;;2.40;;
21587;SDS011;10956;48.878;13.316;2022-07-03T00:18:39;2.57;;;2.37;;
21587;SDS011;10956;48.878;13.316;2022-07-03T00:21:07;2.70;;;2.50;;
21587;SDS011;10956;48.878;13.316;2022-07-03T00:23:38;2.50;;;2.30;;
21587;SDS011;10956;48.878;13.316;2022-07-03T00:26:12;2.60;;;2.40;;
21587;SDS011;10956;48.878;13.316;2022-07-03T00:28:39;2.40;;;2.20;;
21587;SDS011;10956;48.878;13.316;2022-07-03T00:31:07;3.00;;;2.57;;
21587;SDS011;10956;48.878;13.316;2022-07-03T00:33:33;3.33;;;2.90;;
21587;SDS011;10956;48.878;13.316;2022-07-03T00:35:59;3.20;;;2.83;;
21587;SDS011;10956;48.878;13.316;2022-07-03T00:38:25;3.67;;;2.57;;
21587;SDS011;10956;48.878;13.316;2022-07-03T00:40:51;2.60;;;2.37;;
21587;SDS011;10956;48.878;13.316;2022-07-03T00:43:16;5.00;;;2.90;;
21587;SDS011;10956;48.878;13.316;2022-07-03T00:45:45;2.63;;;2.43;;
21587;SDS011;10956;48.878;13.316;2022-07-03T00:48:13;2.97;;;2.67;;
21587;SDS011;10956;48.878;13.316;2022-07-03T00:50:44;3.03;;;2.73;;
21587;SDS011;10956;48.878;13.316;2022-07-03T00:53:17;2.60;;;2.40;;
21587;SDS011;10956;48.878;13.316;2022-07-03T00:55:45;4.23;;;2.53;;
21587;SDS011;10956;48.878;13.316;2022-07-03T00:58:13;2.53;;;2.33;;
21587;SDS011;10956;48.878;13.316;2022-07-03T01:00:41;2.70;;;2.50;;
21587;SDS011;10956;48.878;13.316;2022-07-03T01:03:06;2.63;;;2.43;;
21587;SDS011;10956;48.878;13.316;2022-07-03T01:05:36;3.20;;;2.40;;
21587;SDS011;10956;48.878;13.316;2022-07-03T01:10:52;4.47;;;2.57;;
21587;SDS011;10956;48.878;13.316;2022-07-03T01:16:23;3.03;;;2.50;;
21587;SDS011;10956;48.878;13.316;2022-07-03T01:18:59;2.67;;;2.47;;
21587;SDS011;10956;48.878;13.316;2022-07-03T01:24:28;2.60;;;2.30;;
21587;SDS011;10956;48.878;13.316;2022-07-03T01:27:06;2.50;;;2.30;;
21587;SDS011;10956;48.878;13.316;2022-07-03T01:29:38;2.43;;;2.20;;
21587;SDS011;10956;48.878;13.316;2022-07-03T01:32:09;2.83;;;2.30;;
21587;SDS011;10956;48.878;13.316;2022-07-03T01:34:37;1.93;;;1.83;;
21587;SDS011;10956;48.878;13.316;2022-07-03T01:37:09;2.00;;;1.83;;
21587;SDS011;10956;48.878;13.316;2022-07-03T01:39:35;2.40;;;2.20;;
21587;SDS011;10956;48.878;13.316;2022-07-03T01:42:01;2.60;;;2.40;;
21587;SDS011;10956;48.878;13.316;2022-07-03T01:44:27;2.37;;;2.17;;
21587;SDS011;10956;48.878;13.316;2022-07-03T01:46:56;2.40;;;2.20;;
21587;SDS011;10956;48.878;13.316;2022-07-03T01:49:25;2.20;;;2.03;;
21587;SDS011;10956;48.878;13.316;2022-07-03T01:51:53;2.57;;;2.37;;
21587;SDS011;10956;48.878;13.316;2022-07-03T01:54:20;2.03;;;1.93;;
21587;SDS011;10956;48.878;13.316;2022-07-03T01:56:51;2.30;;;2.10;;
21587;SDS011;10956;48.878;13.316;2022-07-03T01:59:16;2.50;;;2.30;;
21587;SDS011;10956;48.878;13.316;2022-07-03T02:01:48;2.20;;;2.00;;
21587;SDS011;10956;48.878;13.316;2022-07-03T02:04:24;2.73;;;2.10;;
21587;SDS011;10956;48.878;13.316;2022-07-03T02:07:09;2.33;;;2.17;;
21587;SDS011;10956;48.878;13.316;2022-07-03T02:09:44;1.87;;;1.77;;
21587;SDS011;10956;48.878;13.316;2022-07-03T02:12:13;3.33;;;2.00;;
21587;SDS011;10956;48.878;13.316;2022-07-03T02:14:42;3.77;;;2.60;;
21587;SDS011;10956;48.878;13.316;2022-07-03T02:17:20;2.40;;;2.20;;
21587;SDS011;10956;48.878;13.316;2022-07-03T02:19:53;10.87;;;2.30;;
21587;SDS011;10956;48.878;13.316;2022-07-03T02:22:25;2.20;;;1.73;;
21587;SDS011;10956;48.878;13.316;2022-07-03T02:24:53;1.90;;;1.80;;
21587;SDS011;10956;48.878;13.316;2022-07-03T02:27:28;2.20;;;2.03;;
21587;SDS011;10956;48.878;13.316;2022-07-03T02:30:03;2.43;;;2.23;;
21587;SDS011;10956;48.878;13.316;2022-07-03T02:32:32;2.13;;;2.03;;
21587;SDS011;10956;48.878;13.316;2022-07-03T02:35:02;3.53;;;2.33;;
21587;SDS011;10956;48.878;13.316;2022-07-03T02:37:32;2.77;;;2.57;;
21587;SDS011;10956;48.878;13.316;2022-07-03T02:45:21;2.50;;;2.30;;
21587;SDS011;10956;48.878;13.316;2022-07-03T02:47:54;2.20;;;2.00;;
21587;SDS011;10956;48.878;13.316;2022-07-03T02:50:32;2.40;;;2.20;;
21587;SDS011;10956;48.878;13.316;2022-07-03T02:53:11;2.90;;;2.20;;
21587;SDS011;10956;48.878;13.316;2022-07-03T02:58:58;2.60;;;2.20;;
21587;SDS011;10956;48.878;13.316;2022-07-03T03:01:46;2.20;;;2.00;;
21587;SDS011;10956;48.878;13.316;2022-07-03T03:04:39;2.97;;;2.10;;
21587;SDS011;10956;48.878;13.316;2022-07-03T03:07:16;2.57;;;2.37;;
21587;SDS011;10956;48.878;13.316;2022-07-03T03:09:47;2.30;;;2.10;;
21587;SDS011;10956;48.878;13.316;2022-07-03T03:12:13;2.53;;;2.33;;
21587;SDS011;10956;48.878;13.316;2022-07-03T03:14:43;3.23;;;2.40;;
21587;SDS011;10956;48.878;13.316;2022-07-03T03:17:17;2.70;;;2.50;;
21587;SDS011;10956;48.878;13.316;2022-07-03T03:19:55;2.50;;;2.13;;
21587;SDS011;10956;48.878;13.316;2022-07-03T03:25:39;2.30;;;2.10;;
21587;SDS011;10956;48.878;13.316;2022-07-03T03:28:05;2.37;;;2.17;;
21587;SDS011;10956;48.878;13.316;2022-07-03T03:30:30;2.17;;;2.03;;
21587;SDS011;10956;48.878;13.316;2022-07-03T03:32:56;2.70;;;2.13;;
21587;SDS011;10956;48.878;13.316;2022-07-03T03:35:21;2.10;;;1.90;;
21587;SDS011;10956;48.878;13.316;2022-07-03T03:37:47;1.97;;;1.77;;
21587;SDS011;10956;48.878;13.316;2022-07-03T03:40:14;2.40;;;2.20;;
21587;SDS011;10956;48.878;13.316;2022-07-03T03:42:40;2.17;;;1.97;;
21587;SDS011;10956;48.878;13.316;2022-07-03T03:45:06;2.03;;;1.80;;
21587;SDS011;10956;48.878;13.316;2022-07-03T03:47:31;2.17;;;2.00;;
21587;SDS011;10956;48.878;13.316;2022-07-03T03:49:57;1.83;;;1.73;;
21587;SDS011;10956;48.878;13.316;2022-07-03T03:52:23;2.20;;;2.00;;
21587;SDS011;10956;48.878;13.316;2022-07-03T03:54:49;3.63;;;2.27;;
21587;SDS011;10956;48.878;13.316;2022-07-03T03:57:21;2.20;;;2.00;;
21587;SDS011;10956;48.878;13.316;2022-07-03T03:59:48;2.20;;;2.00;;
21587;SDS011;10956;48.878;13.316;2022-07-03T04:02:14;2.20;;;2.00;;
21587;SDS011;10956;48.878;13.316;2022-07-03T04:04:40;3.00;;;2.47;;
21587;SDS011;10956;48.878;13.316;2022-07-03T04:07:06;2.00;;;1.80;;
21587;SDS011;10956;48.878;13.316;2022-07-03T04:09:32;3.17;;;1.83;;
21587;SDS011;10956;48.878;13.316;2022-07-03T04:11:57;2.90;;;1.90;;
21587;SDS011;10956;48.878;13.316;2022-07-03T04:14:23;2.20;;;2.00;;
21587;SDS011;10956;48.878;13.316;2022-07-03T04:16:49;1.83;;;1.73;;
21587;SDS011;10956;48.878;13.316;2022-07-03T04:19:14;2.10;;;2.00;;
21587;SDS011;10956;48.878;13.316;2022-07-03T04:21:40;2.30;;;2.10;;
21587;SDS011;10956;48.878;13.316;2022-07-03T04:24:06;1.80;;;1.70;;
21587;SDS011;10956;48.878;13.316;2022-07-03T04:26:31;3.37;;;1.90;;
21587;SDS011;10956;48.878;13.316;2022-07-03T04:28:57;2.73;;;1.73;;
21587;SDS011;10956;48.878;13.316;2022-07-03T04:31:22;1.97;;;1.87;;
21587;SDS011;10956;48.878;13.316;2022-07-03T04:33:48;1.83;;;1.73;;
21587;SDS011;10956;48.878;13.316;2022-07-03T04:36:13;2.00;;;1.90;;
21587;SDS011;10956;48.878;13.316;2022-07-03T04:38:39;2.30;;;2.00;;
21587;SDS011;10956;48.878;13.316;2022-07-03T04:41:05;2.50;;;2.30;;
21587;SDS011;10956;48.878;13.316;2022-07-03T04:43:30;2.70;;;2.43;;
21587;SDS011;10956;48.878;13.316;2022-07-03T04:45:56;2.73;;;2.40;;
21587;SDS011;10956;48.878;13.316;2022-07-03T04:48:21;2.60;;;2.33;;
21587;SDS011;10956;48.878;13.316;2022-07-03T04:50:46;2.83;;;2.50;;
21587;SDS011;10956;48.878;13.316;2022-07-03T04:53:12;2.40;;;2.20;;
21587;SDS011;10956;48.878;13.316;2022-07-03T04:55:37;2.43;;;2.23;;
21587;SDS011;10956;48.878;13.316;2022-07-03T04:58:03;2.33;;;2.13;;
21587;SDS011;10956;48.878;13.316;2022-07-03T05:00:28;2.43;;;1.77;;
21587;SDS011;10956;48.878;13.316;2022-07-03T05:02:54;2.20;;;2.00;;
21587;SDS011;10956;48.878;13.316;2022-07-03T05:05:19;1.97;;;1.87;;
21587;SDS011;10956;48.878;13.316;2022-07-03T05:07:44;3.07;;;1.60;;
21587;SDS011;10956;48.878;13.316;2022-07-03T05:10:10;2.03;;;1.93;;
21587;SDS011;10956;48.878;13.316;2022-07-03T05:12:35;1.90;;;1.80;;
21587;SDS011;10956;48.878;13.316;2022-07-03T05:15:01;2.10;;;1.90;;
21587;SDS011;10956;48.878;13.316;2022-07-03T05:17:26;2.00;;;1.80;;
21587;SDS011;10956;48.878;13.316;2022-07-03T05:19:52;2.13;;;1.93;;
21587;SDS011;10956;48.878;13.316;2022-07-03T05:22:37;1.90;;;1.80;;
21587;SDS011;10956;48.878;13.316;2022-07-03T05:25:02;2.10;;;1.90;;
21587;SDS011;10956;48.878;13.316;2022-07-03T05:27:28;1.87;;;1.77;;
21587;SDS011;10956;48.878;13.316;2022-07-03T05:29:53;2.20;;;1.90;;
21587;SDS011;10956;48.878;13.316;2022-07-03T05:32:19;2.00;;;1.80;;
21587;SDS011;10956;48.878;13.316;2022-07-03T05:34:44;1.73;;;1.63;;
21587;SDS011;10956;48.878;13.316;2022-07-03T05:37:09;1.83;;;1.73;;
21587;SDS011;10956;48.878;13.316;2022-07-03T05:39:35;1.67;;;1.57;;
21587;SDS011;10956;48.878;13.316;2022-07-03T05:42:03;2.23;;;2.00;;
21587;SDS011;10956;48.878;13.316;2022-07-03T05:44:29;2.87;;;2.20;;
21587;SDS011;10956;48.878;13.316;2022-07-03T05:46:54;2.00;;;1.80;;
21587;SDS011;10956;48.878;13.316;2022-07-03T05:49:20;2.57;;;2.00;;
21587;SDS011;10956;48.878;13.316;2022-07-03T05:51:45;2.17;;;2.07;;
21587;SDS011;10956;48.878;13.316;2022-07-03T05:54:10;2.00;;;1.90;;
21587;SDS011;10956;48.878;13.316;2022-07-03T05:56:36;2.23;;;2.00;;
21587;SDS011;10956;48.878;13.316;2022-07-03T05:59:01;2.10;;;2.00;;
21587;SDS011;10956;48.878;13.316;2022-07-03T06:01:27;2.50;;;2.30;;
21587;SDS011;10956;48.878;13.316;2022-07-03T06:03:52;2.00;;;1.90;;
21587;SDS011;10956;48.878;13.316;2022-07-03T06:06:18;2.73;;;2.00;;
21587;SDS011;10956;48.878;13.316;2022-07-03T06:08:43;4.43;;;2.43;;
21587;SDS011;10956;48.878;13.316;2022-07-03T06:11:08;2.33;;;2.13;;
21587;SDS011;10956;48.878;13.316;2022-07-03T06:13:34;2.60;;;2.40;;
21587;SDS011;10956;48.878;13.316;2022-07-03T06:15:59;2.33;;;2.13;;
21587;SDS011;10956;48.878;13.316;2022-07-03T06:18:25;2.50;;;2.30;;
21587;SDS011;10956;48.878;13.316;2022-07-03T06:20:50;2.50;;;2.30;;
21587;SDS011;10956;48.878;13.316;2022-07-03T06:23:16;2.50;;;2.30;;
21587;SDS011;10956;48.878;13.316;2022-07-03T06:25:41;2.73;;;2.53;;
21587;SDS011;10956;48.878;13.316;2022-07-03T06:28:07;2.70;;;2.50;;
21587;SDS011;10956;48.878;13.316;2022-07-03T06:30:32;2.33;;;2.13;;
21587;SDS011;10956;48.878;13.316;2022-07-03T06:32:57;2.40;;;2.20;;
21587;SDS011;10956;48.878;13.316;2022-07-03T06:35:23;2.03;;;1.93;;
21587;SDS011;10956;48.878;13.316;2022-07-03T06:37:48;2.77;;;2.50;;
21587;SDS011;10956;48.878;13.316;2022-07-03T06:40:13;2.93;;;2.50;;
21587;SDS011;10956;48.878;13.316;2022-07-03T06:42:39;2.33;;;2.13;;
21587;SDS011;10956;48.878;13.316;2022-07-03T06:45:04;2.00;;;1.90;;
21587;SDS011;10956;48.878;13.316;2022-07-03T06:47:30;2.30;;;2.10;;
21587;SDS011;10956;48.878;13.316;2022-07-03T06:49:56;2.53;;;2.33;;
21587;SDS011;10956;48.878;13.316;2022-07-03T06:52:21;2.73;;;2.37;;
21587;SDS011;10956;48.878;13.316;2022-07-03T06:54:46;3.87;;;2.50;;
21587;SDS011;10956;48.878;13.316;2022-07-03T06:57:13;2.67;;;2.47;;
21587;SDS011;10956;48.878;13.316;2022-07-03T06:59:39;2.33;;;2.17;;
21587;SDS011;10956;48.878;13.316;2022-07-03T07:02:04;2.47;;;2.27;;
21587;SDS011;10956;48.878;13.316;2022-07-03T07:04:30;2.40;;;2.20;;
21587;SDS011;10956;48.878;13.316;2022-07-03T07:06:55;2.40;;;2.20;;
21587;SDS011;10956;48.878;13.316;2022-07-03T07:09:21;2.63;;;2.43;;
21587;SDS011;10956;48.878;13.316;2022-07-03T07:11:46;3.67;;;2.30;;
21587;SDS011;10956;48.878;13.316;2022-07-03T07:14:12;2.80;;;2.40;;
21587;SDS011;10956;48.878;13.316;2022-07-03T07:16:37;3.47;;;2.40;;
21587;SDS011;10956;48.878;13.316;2022-07-03T07:19:02;4.60;;;2.77;;
21587;SDS011;10956;48.878;13.316;2022-07-03T07:21:28;3.20;;;2.90;;
21587;SDS011;10956;48.878;13.316;2022-07-03T07:23:53;2.70;;;2.50;;
21587;SDS011;10956;48.878;13.316;2022-07-03T07:26:19;6.70;;;2.60;;
21587;SDS011;10956;48.878;13.316;2022-07-03T07:28:45;3.73;;;2.60;;
21587;SDS011;10956;48.878;13.316;2022-07-03T07:31:11;2.50;;;2.30;;
21587;SDS011;10956;48.878;13.316;2022-07-03T07:33:36;3.23;;;2.10;;
21587;SDS011;10956;48.878;13.316;2022-07-03T07:36:02;3.20;;;2.50;;
21587;SDS011;10956;48.878;13.316;2022-07-03T07:38:27;2.30;;;2.10;;
21587;SDS011;10956;48.878;13.316;2022-07-03T07:40:53;2.30;;;2.10;;
21587;SDS011;10956;48.878;13.316;2022-07-03T07:43:18;2.37;;;2.27;;
21587;SDS011;10956;48.878;13.316;2022-07-03T07:45:43;3.17;;;2.43;;
21587;SDS011;10956;48.878;13.316;2022-07-03T07:48:09;2.57;;;2.37;;
21587;SDS011;10956;48.878;13.316;2022-07-03T07:50:34;2.50;;;2.30;;
21587;SDS011;10956;48.878;13.316;2022-07-03T07:53:00;2.67;;;2.47;;
21587;SDS011;10956;48.878;13.316;2022-07-03T07:55:25;2.27;;;2.17;;
21587;SDS011;10956;48.878;13.316;2022-07-03T07:57:51;2.67;;;2.40;;
21587;SDS011;10956;48.878;13.316;2022-07-03T08:00:17;2.50;;;2.30;;
21587;SDS011;10956;48.878;13.316;2022-07-03T08:02:44;2.90;;;2.70;;
21587;SDS011;10956;48.878;13.316;2022-07-03T08:05:29;4.57;;;2.33;;
21587;SDS011;10956;48.878;13.316;2022-07-03T08:08:00;3.40;;;2.70;;
21587;SDS011;10956;48.878;13.316;2022-07-03T08:10:39;2.37;;;2.17;;
21587;SDS011;10956;48.878;13.316;2022-07-03T08:13:09;2.73;;;2.53;;
21587;SDS011;10956;48.878;13.316;2022-07-03T08:15:35;3.57;;;2.60;;
21587;SDS011;10956;48.878;13.316;2022-07-03T08:18:01;2.10;;;2.00;;
21587;SDS011;10956;48.878;13.316;2022-07-03T08:20:28;2.43;;;2.23;;
21587;SDS011;10956;48.878;13.316;2022-07-03T08:22:53;2.67;;;2.40;;
21587;SDS011;10956;48.878;13.316;2022-07-03T08:25:19;2.67;;;2.47;;
21587;SDS011;10956;48.878;13.316;2022-07-03T08:27:44;2.53;;;2.33;;
21587;SDS011;10956;48.878;13.316;2022-07-03T08:30:10;2.90;;;2.70;;
21587;SDS011;10956;48.878;13.316;2022-07-03T08:32:36;2.87;;;2.67;;
21587;SDS011;10956;48.878;13.316;2022-07-03T08:35:01;2.57;;;2.37;;
21587;SDS011;10956;48.878;13.316;2022-07-03T08:37:28;2.73;;;2.53;;
21587;SDS011;10956;48.878;13.316;2022-07-03T08:39:54;2.57;;;2.37;;
21587;SDS011;10956;48.878;13.316;2022-07-03T08:42:20;2.97;;;2.70;;
21587;SDS011;10956;48.878;13.316;2022-07-03T08:44:47;2.50;;;2.30;;
21587;SDS011;10956;48.878;13.316;2022-07-03T08:47:15;3.10;;;2.30;;
21587;SDS011;10956;48.878;13.316;2022-07-03T08:49:42;2.50;;;2.30;;
21587;SDS011;10956;48.878;13.316;2022-07-03T08:52:09;2.53;;;2.33;;
21587;SDS011;10956;48.878;13.316;2022-07-03T08:54:38;2.13;;;1.93;;
21587;SDS011;10956;48.878;13.316;2022-07-03T08:57:03;3.50;;;2.53;;
21587;SDS011;10956;48.878;13.316;2022-07-03T08:59:39;2.80;;;2.50;;
21587;SDS011;10956;48.878;13.316;2022-07-03T09:02:06;2.30;;;2.10;;
21587;SDS011;10956;48.878;13.316;2022-07-03T09:04:32;2.77;;;2.30;;
21587;SDS011;10956;48.878;13.316;2022-07-03T09:06:59;4.37;;;2.73;;
21587;SDS011;10956;48.878;13.316;2022-07-03T09:09:25;2.60;;;2.40;;
21587;SDS011;10956;48.878;13.316;2022-07-03T09:11:51;2.60;;;2.40;;
21587;SDS011;10956;48.878;13.316;2022-07-03T09:14:17;2.27;;;2.13;;
21587;SDS011;10956;48.878;13.316;2022-07-03T09:16:43;2.20;;;2.10;;
21587;SDS011;10956;48.878;13.316;2022-07-03T09:19:08;2.17;;;1.90;;
21587;SDS011;10956;48.878;13.316;2022-07-03T09:21:35;2.10;;;2.00;;
21587;SDS011;10956;48.878;13.316;2022-07-03T09:24:03;2.33;;;2.13;;
21587;SDS011;10956;48.878;13.316;2022-07-03T09:26:30;3.43;;;2.70;;
21587;SDS011;10956;48.878;13.316;2022-07-03T09:28:56;2.83;;;2.63;;
21587;SDS011;10956;48.878;13.316;2022-07-03T09:31:22;2.90;;;2.67;;
21587;SDS011;10956;48.878;13.316;2022-07-03T09:36:43;2.60;;;2.40;;
21587;SDS011;10956;48.878;13.316;2022-07-03T09:39:16;4.97;;;2.80;;
21587;SDS011;10956;48.878;13.316;2022-07-03T09:41:55;2.70;;;2.50;;
21587;SDS011;10956;48.878;13.316;2022-07-03T09:44:29;3.83;;;2.70;;
21587;SDS011;10956;48.878;13.316;2022-07-03T09:52:29;2.80;;;2.57;;
21587;SDS011;10956;48.878;13.316;2022-07-03T09:57:33;2.23;;;2.03;;
21587;SDS011;10956;48.878;13.316;2022-07-03T10:05:32;2.50;;;2.30;;
21587;SDS011;10956;48.878;13.316;2022-07-03T10:08:12;2.50;;;2.20;;
21587;SDS011;10956;48.878;13.316;2022-07-03T10:10:44;2.53;;;2.33;;
21587;SDS011;10956;48.878;13.316;2022-07-03T10:13:11;2.87;;;2.57;;
21587;SDS011;10956;48.878;13.316;2022-07-03T10:15:37;2.40;;;2.20;;
21587;SDS011;10956;48.878;13.316;2022-07-03T10:18:05;2.67;;;2.47;;
21587;SDS011;10956;48.878;13.316;2022-07-03T10:23:03;2.43;;;2.23;;
21587;SDS011;10956;48.878;13.316;2022-07-03T10:25:29;2.63;;;2.43;;
21587;SDS011;10956;48.878;13.316;2022-07-03T10:27:55;2.30;;;2.10;;
21587;SDS011;10956;48.878;13.316;2022-07-03T10:30:22;2.80;;;2.60;;
21587;SDS011;10956;48.878;13.316;2022-07-03T10:32:49;2.67;;;2.47;;
21587;SDS011;10956;48.878;13.316;2022-07-03T10:35:27;5.83;;;2.53;;
21587;SDS011;10956;48.878;13.316;2022-07-03T10:43:33;2.60;;;2.40;;
21587;SDS011;10956;48.878;13.316;2022-07-03T10:46:23;2.40;;;2.30;;
21587;SDS011;10956;48.878;13.316;2022-07-03T10:48:50;2.30;;;2.20;;
21587;SDS011;10956;48.878;13.316;2022-07-03T11:07:27;3.07;;;2.63;;
21587;SDS011;10956;48.878;13.316;2022-07-03T11:26:44;2.70;;;2.37;;
21587;SDS011;10956;48.878;13.316;2022-07-03T11:29:24;7.23;;;2.60;;
21587;SDS011;10956;48.878;13.316;2022-07-03T11:31:50;2.40;;;2.20;;
21587;SDS011;10956;48.878;13.316;2022-07-03T11:34:19;1.77;;;1.67;;
21587;SDS011;10956;48.878;13.316;2022-07-03T11:36:45;1.30;;;1.20;;
21587;SDS011;10956;48.878;13.316;2022-07-03T11:39:12;1.20;;;1.10;;
21587;SDS011;10956;48.878;13.316;2022-07-03T11:44:04;1.20;;;1.10;;
21587;SDS011;10956;48.878;13.316;2022-07-03T11:46:32;1.70;;;1.07;;
21587;SDS011;10956;48.878;13.316;2022-07-03T11:51:31;1.27;;;1.17;;
21587;SDS011;10956;48.878;13.316;2022-07-03T11:53:57;1.30;;;1.20;;
21587;SDS011;10956;48.878;13.316;2022-07-03T11:56:23;1.10;;;1.10;;
21587;SDS011;10956;48.878;13.316;2022-07-03T12:03:48;1.13;;;1.10;;
21587;SDS011;10956;48.878;13.316;2022-07-03T12:06:15;1.40;;;1.30;;
21587;SDS011;10956;48.878;13.316;2022-07-03T12:08:41;1.20;;;1.10;;
21587;SDS011;10956;48.878;13.316;2022-07-03T12:11:11;1.27;;;1.17;;
21587;SDS011;10956;48.878;13.316;2022-07-03T12:13:37;1.05;;;1.05;;
21587;SDS011;10956;48.878;13.316;2022-07-03T12:21:17;1.30;;;1.20;;
21587;SDS011;10956;48.878;13.316;2022-07-03T12:23:48;1.30;;;1.20;;
21587;SDS011;10956;48.878;13.316;2022-07-03T12:26:34;1.35;;;1.25;;
21587;SDS011;10956;48.878;13.316;2022-07-03T12:29:02;1.17;;;1.08;;
21587;SDS011;10956;48.878;13.316;2022-07-03T12:31:29;1.00;;;1.00;;
21587;SDS011;10956;48.878;13.316;2022-07-03T12:33:55;1.08;;;1.08;;
21587;SDS011;10956;48.878;13.316;2022-07-03T12:36:22;3.50;;;1.25;;
21587;SDS011;10956;48.878;13.316;2022-07-03T12:38:48;1.38;;;1.27;;
21587;SDS011;10956;48.878;13.316;2022-07-03T12:41:14;1.63;;;1.30;;
21587;SDS011;10956;48.878;13.316;2022-07-03T12:43:42;1.00;;;1.00;;
21587;SDS011;10956;48.878;13.316;2022-07-03T12:48:46;1.20;;;1.10;;
21587;SDS011;10956;48.878;13.316;2022-07-03T12:51:11;1.15;;;1.10;;
21587;SDS011;10956;48.878;13.316;2022-07-03T12:53:37;1.30;;;1.20;;
21587;SDS011;10956;48.878;13.316;2022-07-03T12:56:03;2.70;;;1.27;;
21587;SDS011;10956;48.878;13.316;2022-07-03T12:58:29;1.55;;;1.10;;
21587;SDS011;10956;48.878;13.316;2022-07-03T13:03:53;1.20;;;1.10;;
21587;SDS011;10956;48.878;13.316;2022-07-03T13:06:20;2.05;;;1.38;;
21587;SDS011;10956;48.878;13.316;2022-07-03T13:08:56;1.75;;;1.00;;
21587;SDS011;10956;48.878;13.316;2022-07-03T13:11:42;1.20;;;1.10;;
21587;SDS011;10956;48.878;13.316;2022-07-03T13:14:08;1.08;;;1.08;;
21587;SDS011;10956;48.878;13.316;2022-07-03T13:16:42;1.50;;;1.40;;
21587;SDS011;10956;48.878;13.316;2022-07-03T13:19:15;1.48;;;1.38;;
21587;SDS011;10956;48.878;13.316;2022-07-03T13:21:45;1.10;;;1.10;;
21587;SDS011;10956;48.878;13.316;2022-07-03T13:24:11;1.42;;;1.33;;
21587;SDS011;10956;48.878;13.316;2022-07-03T13:26:39;1.20;;;1.20;;
21587;SDS011;10956;48.878;13.316;2022-07-03T13:29:04;1.30;;;1.20;;
21587;SDS011;10956;48.878;13.316;2022-07-03T13:31:30;1.35;;;1.25;;
21587;SDS011;10956;48.878;13.316;2022-07-03T13:33:56;1.38;;;1.27;;
21587;SDS011;10956;48.878;13.316;2022-07-03T13:36:24;3.95;;;1.20;;
21587;SDS011;10956;48.878;13.316;2022-07-03T13:38:54;1.38;;;1.20;;
21587;SDS011;10956;48.878;13.316;2022-07-03T13:41:20;1.80;;;1.40;;
21587;SDS011;10956;48.878;13.316;2022-07-03T13:43:47;1.50;;;1.40;;
21587;SDS011;10956;48.878;13.316;2022-07-03T13:46:14;1.70;;;1.23;;
21587;SDS011;10956;48.878;13.316;2022-07-03T13:48:40;1.85;;;1.52;;
21587;SDS011;10956;48.878;13.316;2022-07-03T13:51:05;1.38;;;1.27;;
21587;SDS011;10956;48.878;13.316;2022-07-03T13:53:30;1.40;;;1.30;;
21587;SDS011;10956;48.878;13.316;2022-07-03T13:55:56;1.40;;;1.30;;
21587;SDS011;10956;48.878;13.316;2022-07-03T13:58:23;1.83;;;1.20;;
21587;SDS011;10956;48.878;13.316;2022-07-03T14:00:49;1.27;;;1.17;;
21587;SDS011;10956;48.878;13.316;2022-07-03T14:03:14;1.50;;;1.40;;
21587;SDS011;10956;48.878;13.316;2022-07-03T14:05:40;1.45;;;1.35;;
21587;SDS011;10956;48.878;13.316;2022-07-03T14:08:05;1.48;;;1.38;;
21587;SDS011;10956;48.878;13.316;2022-07-03T14:10:31;1.67;;;1.42;;
21587;SDS011;10956;48.878;13.316;2022-07-03T14:12:56;2.70;;;1.30;;
21587;SDS011;10956;48.878;13.316;2022-07-03T14:15:22;1.35;;;1.25;;
21587;SDS011;10956;48.878;13.316;2022-07-03T14:17:47;1.48;;;1.38;;
21587;SDS011;10956;48.878;13.316;2022-07-03T14:20:13;1.50;;;1.33;;
21587;SDS011;10956;48.878;13.316;2022-07-03T14:22:39;1.40;;;1.30;;
21587;SDS011;10956;48.878;13.316;2022-07-03T14:25:04;1.50;;;1.40;;
21587;SDS011;10956;48.878;13.316;2022-07-03T14:27:30;1.30;;;1.20;;
21587;SDS011;10956;48.878;13.316;2022-07-03T14:30:14;1.40;;;1.30;;
21587;SDS011;10956;48.878;13.316;2022-07-03T14:32:58;1.30;;;1.20;;
21587;SDS011;10956;48.878;13.316;2022-07-03T14:35:23;2.33;;;1.70;;
21587;SDS011;10956;48.878;13.316;2022-07-03T14:37:49;1.38;;;1.27;;
21587;SDS011;10956;48.878;13.316;2022-07-03T14:40:15;1.33;;;1.23;;
21587;SDS011;10956;48.878;13.316;2022-07-03T14:42:40;1.30;;;1.20;;
21587;SDS011;10956;48.878;13.316;2022-07-03T14:45:07;1.40;;;1.30;;
21587;SDS011;10956;48.878;13.316;2022-07-03T14:47:32;1.13;;;1.13;;
21587;SDS011;10956;48.878;13.316;2022-07-03T14:49:58;3.10;;;1.83;;
21587;SDS011;10956;48.878;13.316;2022-07-03T14:52:23;1.55;;;1.45;;
21587;SDS011;10956;48.878;13.316;2022-07-03T14:54:49;1.10;;;1.10;;
21587;SDS011;10956;48.878;13.316;2022-07-03T15:00:00;1.15;;;1.15;;
21587;SDS011;10956;48.878;13.316;2022-07-03T15:02:37;1.55;;;1.45;;
21587;SDS011;10956;48.878;13.316;2022-07-03T15:05:09;1.25;;;1.15;;
21587;SDS011;10956;48.878;13.316;2022-07-03T15:07:43;1.15;;;1.13;;
21587;SDS011;10956;48.878;13.316;2022-07-03T15:10:17;1.17;;;1.15;;
21587;SDS011;10956;48.878;13.316;2022-07-03T15:12:51;1.20;;;1.10;;
21587;SDS011;10956;48.878;13.316;2022-07-03T15:15:18;4.72;;;1.40;;
21587;SDS011;10956;48.878;13.316;2022-07-03T15:17:47;2.13;;;1.10;;
21587;SDS011;10956;48.878;13.316;2022-07-03T15:20:14;1.20;;;1.20;;
21587;SDS011;10956;48.878;13.316;2022-07-03T15:22:42;1.63;;;1.20;;
21587;SDS011;10956;48.878;13.316;2022-07-03T15:25:09;1.25;;;1.15;;
21587;SDS011;10956;48.878;13.316;2022-07-03T15:27:36;1.20;;;1.10;;
21587;SDS011;10956;48.878;13.316;2022-07-03T15:30:03;2.17;;;1.30;;
21587;SDS011;10956;48.878;13.316;2022-07-03T15:32:29;3.13;;;1.38;;
21587;SDS011;10956;48.878;13.316;2022-07-03T15:34:55;3.42;;;1.30;;
21587;SDS011;10956;48.878;13.316;2022-07-03T15:42:56;1.25;;;1.15;;
21587;SDS011;10956;48.878;13.316;2022-07-03T15:57:21;1.20;;;1.10;;
21587;SDS011;10956;48.878;13.316;2022-07-03T15:59:58;1.25;;;1.15;;
21587;SDS011;10956;48.878;13.316;2022-07-03T16:02:36;1.40;;;1.15;;
21587;SDS011;10956;48.878;13.316;2022-07-03T16:05:11;3.00;;;1.50;;
21587;SDS011;10956;48.878;13.316;2022-07-03T16:07:39;2.83;;;1.25;;
21587;SDS011;10956;48.878;13.316;2022-07-03T16:10:06;1.10;;;1.10;;
21587;SDS011;10956;48.878;13.316;2022-07-03T16:12:33;1.00;;;1.00;;
21587;SDS011;10956;48.878;13.316;2022-07-03T16:14:59;1.00;;;1.00;;
21587;SDS011;10956;48.878;13.316;2022-07-03T16:17:25;2.42;;;1.08;;
21587;SDS011;10956;48.878;13.316;2022-07-03T16:19:52;1.23;;;1.13;;
21587;SDS011;10956;48.878;13.316;2022-07-03T16:22:18;1.75;;;1.00;;
21587;SDS011;10956;48.878;13.316;2022-07-03T16:24:44;2.63;;;1.15;;
21587;SDS011;10956;48.878;13.316;2022-07-03T16:27:12;1.40;;;1.20;;
21587;SDS011;10956;48.878;13.316;2022-07-03T16:29:44;1.45;;;0.90;;
21587;SDS011;10956;48.878;13.316;2022-07-03T16:32:11;1.30;;;1.20;;
21587;SDS011;10956;48.878;13.316;2022-07-03T16:34:50;1.50;;;1.20;;
21587;SDS011;10956;48.878;13.316;2022-07-03T16:37:33;1.98;;;0.98;;